createdAt,value
2023-02-07T00:01:27.166Z,101113.47
2023-02-07T00:03:56.841Z,101112.91
2023-02-07T00:06:27.544Z,101107.97
2023-02-07T00:08:54.822Z,101113.66
2023-02-07T00:11:23.616Z,101117.25
2023-02-07T00:13:53.931Z,101111.13
2023-02-07T00:16:21.891Z,101118.13
2023-02-07T00:18:49.631Z,101112.91
2023-02-07T00:21:18.667Z,101119.78
2023-02-07T00:23:46.893Z,101115.75
2023-02-07T00:26:16.059Z,101117.53
2023-02-07T00:28:45.474Z,101129.78
2023-02-07T00:31:19.182Z,101127.97
2023-02-07T00:33:47.534Z,101126.66
2023-02-07T00:36:20.116Z,101136.63
2023-02-07T00:38:47.833Z,101131.84
2023-02-07T00:41:18.422Z,101138.59
2023-02-07T00:43:47.796Z,101128.72
2023-02-07T00:46:15.449Z,101136.91
2023-02-07T00:48:42.445Z,101139.78
2023-02-07T00:51:10.940Z,101135.84
2023-02-07T00:53:39.628Z,101130.50
2023-02-07T00:56:08.746Z,101135.88
2023-02-07T00:58:36.400Z,101143.38
2023-02-07T01:01:03.928Z,101140.19
2023-02-07T01:03:31.245Z,101134.97
2023-02-07T01:05:58.217Z,101139.59
2023-02-07T01:08:25.041Z,101139.41
2023-02-07T01:10:52.077Z,101141.81
2023-02-07T01:13:19.260Z,101139.75
2023-02-07T01:15:48.718Z,101134.97
2023-02-07T01:18:16.288Z,101138.84
2023-02-07T01:20:43.317Z,101127.63
2023-02-07T01:23:11.603Z,101130.03
2023-02-07T01:25:40.052Z,101123.44
2023-02-07T01:28:07.897Z,101132.28
2023-02-07T01:30:34.844Z,101138.50
2023-02-07T01:33:01.771Z,101129.97
2023-02-07T01:35:28.782Z,101137.09
2023-02-07T01:37:55.609Z,101134.13
2023-02-07T01:40:22.498Z,101128.03
2023-02-07T01:42:49.560Z,101127.72
2023-02-07T01:45:30.488Z,101126.38
2023-02-07T01:48:02.355Z,101136.53
2023-02-07T01:50:30.409Z,101137.31
2023-02-07T01:53:00.438Z,101142.69
2023-02-07T01:55:31.784Z,101151.34
2023-02-07T01:58:00.990Z,101141.97
2023-02-07T02:03:04.321Z,101132.22
2023-02-07T02:05:32.814Z,101145.25
2023-02-07T02:07:59.666Z,101144.63
2023-02-07T02:10:50.681Z,101150.44
2023-02-07T02:13:30.686Z,101145.88
2023-02-07T02:16:13.523Z,101156.56
2023-02-07T02:19:06.124Z,101159.13
2023-02-07T02:21:57.370Z,101159.00
2023-02-07T02:24:33.104Z,101157.88
2023-02-07T02:27:27.337Z,101157.59
2023-02-07T02:30:20.809Z,101168.41
2023-02-07T02:33:13.154Z,101163.28
2023-02-07T02:36:04.607Z,101160.13
2023-02-07T02:39:16.344Z,101172.09
2023-02-07T02:42:23.589Z,101167.81
2023-02-07T02:45:02.106Z,101158.88
2023-02-07T02:47:32.185Z,101168.63
2023-02-07T02:49:59.457Z,101168.81
2023-02-07T02:52:48.495Z,101157.66
2023-02-07T02:55:18.149Z,101171.31
2023-02-07T02:58:03.594Z,101170.31
2023-02-07T03:00:38.920Z,101175.66
2023-02-07T03:03:29.808Z,101176.81
2023-02-07T03:06:14.479Z,101170.53
2023-02-07T03:09:00.731Z,101172.22
2023-02-07T03:11:32.308Z,101176.22
2023-02-07T03:14:27.062Z,101189.09
2023-02-07T03:17:14.680Z,101182.31
2023-02-07T03:20:10.067Z,101184.41
2023-02-07T03:22:37.956Z,101182.25
2023-02-07T03:25:06.652Z,101182.25
2023-02-07T03:27:35.112Z,101180.56
2023-02-07T03:30:07.314Z,101180.16
2023-02-07T03:32:42.230Z,101179.72
2023-02-07T03:35:18.333Z,101183.31
2023-02-07T03:37:49.963Z,101184.16
2023-02-07T03:40:17.504Z,101176.31
2023-02-07T03:42:55.606Z,101188.31
2023-02-07T03:45:23.114Z,101181.59
2023-02-07T03:47:51.532Z,101188.63
2023-02-07T03:50:18.475Z,101195.34
2023-02-07T03:52:45.259Z,101195.78
2023-02-07T03:55:12.667Z,101192.81
2023-02-07T03:57:39.696Z,101203.38
2023-02-07T04:00:07.584Z,101214.81
2023-02-07T04:02:34.416Z,101193.06
2023-02-07T04:05:01.358Z,101209.25
2023-02-07T04:07:28.196Z,101210.69
2023-02-07T04:09:55.035Z,101208.50
2023-02-07T04:12:22.246Z,101226.31
2023-02-07T04:14:49.152Z,101216.63
2023-02-07T04:17:16.037Z,101220.81
2023-02-07T04:19:43.004Z,101226.78
2023-02-07T04:22:11.215Z,101232.03
2023-02-07T04:24:38.137Z,101233.03
2023-02-07T04:27:05.081Z,101231.00
2023-02-07T04:29:32.003Z,101233.00
2023-02-07T04:31:59.269Z,101229.81
2023-02-07T04:34:26.787Z,101239.88
2023-02-07T04:36:56.154Z,101244.13
2023-02-07T04:39:23.255Z,101242.56
2023-02-07T04:41:50.105Z,101243.22
2023-02-07T04:44:17.024Z,101254.50
2023-02-07T04:46:43.892Z,101252.53
2023-02-07T04:49:10.841Z,101257.69
2023-02-07T04:51:37.652Z,101256.34
2023-02-07T04:54:04.577Z,101263.56
2023-02-07T04:56:31.556Z,101266.25
2023-02-07T04:58:58.366Z,101254.50
2023-02-07T05:01:25.265Z,101269.34
2023-02-07T05:03:52.245Z,101261.75
2023-02-07T05:06:19.100Z,101271.34
2023-02-07T05:08:45.908Z,101269.50
2023-02-07T05:11:13.799Z,101271.72
2023-02-07T05:13:40.907Z,101279.22
2023-02-07T05:16:08.006Z,101286.50
2023-02-07T05:18:35.179Z,101279.78
2023-02-07T05:21:02.015Z,101267.72
2023-02-07T05:23:28.852Z,101275.91
2023-02-07T05:25:55.668Z,101289.75
2023-02-07T05:28:22.498Z,101275.63
2023-02-07T05:30:53.574Z,101281.78
2023-02-07T05:33:20.562Z,101287.47
2023-02-07T05:35:47.588Z,101285.28
2023-02-07T05:38:19.744Z,101302.22
2023-02-07T05:40:47.789Z,101294.53
2023-02-07T05:43:15.042Z,101295.78
2023-02-07T05:45:42.055Z,101294.00
2023-02-07T05:48:09.097Z,101299.06
2023-02-07T05:50:36.070Z,101307.88
2023-02-07T05:53:03.696Z,101302.13
2023-02-07T05:55:30.963Z,101302.81
2023-02-07T05:57:57.849Z,101310.97
2023-02-07T06:00:24.753Z,101296.94
2023-02-07T06:02:51.687Z,101305.94
2023-02-07T06:05:23.185Z,101305.78
2023-02-07T06:07:51.581Z,101315.81
2023-02-07T06:10:18.963Z,101320.06
2023-02-07T06:12:45.781Z,101316.50
2023-02-07T06:15:12.676Z,101314.13
2023-02-07T06:17:39.560Z,101311.44
2023-02-07T06:20:06.837Z,101318.63
2023-02-07T06:22:33.701Z,101316.72
2023-02-07T06:25:00.493Z,101321.72
2023-02-07T06:27:27.420Z,101309.50
2023-02-07T06:29:54.357Z,101327.06
2023-02-07T06:32:39.658Z,101314.09
2023-02-07T06:35:07.260Z,101317.19
2023-02-07T06:37:34.477Z,101324.03
2023-02-07T06:40:01.379Z,101317.78
2023-02-07T06:42:28.306Z,101317.84
2023-02-07T06:44:55.228Z,101327.31
2023-02-07T06:47:22.047Z,101322.91
2023-02-07T06:49:48.971Z,101324.22
2023-02-07T06:52:16.310Z,101324.22
2023-02-07T06:54:43.494Z,101316.97
2023-02-07T06:57:10.573Z,101324.88
2023-02-07T06:59:37.641Z,101323.69
2023-02-07T07:02:04.917Z,101325.38
2023-02-07T07:04:32.022Z,101336.56
2023-02-07T07:06:58.863Z,101337.84
2023-02-07T07:09:25.803Z,101332.25
2023-02-07T07:11:52.658Z,101333.25
2023-02-07T07:14:19.590Z,101342.00
2023-02-07T07:16:47.810Z,101337.41
2023-02-07T07:19:14.708Z,101341.88
2023-02-07T07:21:41.518Z,101336.41
2023-02-07T07:24:08.623Z,101332.75
2023-02-07T07:26:48.414Z,101328.03
2023-02-07T07:29:15.618Z,101335.84
2023-02-07T07:31:42.603Z,101330.72
2023-02-07T07:34:09.459Z,101336.66
2023-02-07T07:36:36.381Z,101321.16
2023-02-07T07:39:04.076Z,101331.03
2023-02-07T07:41:30.989Z,101330.22
2023-02-07T07:43:57.818Z,101329.84
2023-02-07T07:46:24.860Z,101324.63
2023-02-07T07:48:51.712Z,101327.81
2023-02-07T07:51:18.745Z,101320.84
2023-02-07T07:53:45.657Z,101317.56
2023-02-07T07:56:12.440Z,101322.84
2023-02-07T07:58:39.258Z,101325.03
2023-02-07T08:01:06.226Z,101320.22
2023-02-07T08:03:33.172Z,101321.50
2023-02-07T08:06:00.108Z,101312.47
2023-02-07T08:08:27.090Z,101322.34
2023-02-07T08:10:53.940Z,101313.59
2023-02-07T08:13:20.899Z,101315.19
2023-02-07T08:15:48.124Z,101314.22
2023-02-07T08:18:14.979Z,101313.94
2023-02-07T08:20:41.780Z,101307.25
2023-02-07T08:23:08.900Z,101314.75
2023-02-07T08:25:35.725Z,101317.06
2023-02-07T08:28:04.520Z,101317.31
2023-02-07T08:30:31.790Z,101319.97
2023-02-07T08:32:58.641Z,101319.16
2023-02-07T08:35:26.679Z,101317.13
2023-02-07T08:37:54.261Z,101321.28
2023-02-07T08:40:21.753Z,101330.63
2023-02-07T08:42:48.567Z,101323.81
2023-02-07T08:45:17.844Z,101328.50
2023-02-07T08:47:46.138Z,101327.81
2023-02-07T08:50:17.788Z,101332.47
2023-02-07T08:52:45.145Z,101332.59
2023-02-07T08:55:12.689Z,101332.34
2023-02-07T08:57:39.534Z,101334.97
2023-02-07T09:00:07.669Z,101340.78
2023-02-07T09:02:34.799Z,101342.03
2023-02-07T09:05:20.412Z,101340.25
2023-02-07T09:07:47.259Z,101336.53
2023-02-07T09:10:15.647Z,101343.63
2023-02-07T09:12:42.560Z,101345.59
2023-02-07T09:15:09.768Z,101342.16
2023-02-07T09:17:37.354Z,101337.19
2023-02-07T09:20:04.565Z,101325.22
2023-02-07T09:22:31.809Z,101325.47
2023-02-07T09:24:59.372Z,101315.19
2023-02-07T09:27:26.279Z,101325.88
2023-02-07T09:29:53.105Z,101320.16
2023-02-07T09:32:20.271Z,101321.91
2023-02-07T09:34:47.144Z,101318.16
2023-02-07T09:37:14.057Z,101312.06
2023-02-07T09:39:42.822Z,101314.03
2023-02-07T09:42:36.036Z,101309.84
2023-02-07T09:45:22.421Z,101315.41
2023-02-07T09:47:54.525Z,101308.38
2023-02-07T09:50:26.215Z,101301.34
2023-02-07T09:53:15.660Z,101304.59
2023-02-07T09:55:55.338Z,101308.69
2023-02-07T09:58:44.291Z,101314.03
2023-02-07T10:01:38.142Z,101313.81
2023-02-07T10:04:22.984Z,101310.44
2023-02-07T10:06:57.212Z,101295.63
2023-02-07T10:09:55.706Z,101299.03
2023-02-07T10:12:48.532Z,101293.63
2023-02-07T10:15:48.478Z,101287.63
2023-02-07T10:18:30.408Z,101293.25
2023-02-07T10:21:31.445Z,101300.66
2023-02-07T10:24:23.341Z,101306.19
2023-02-07T10:26:54.814Z,101301.44
2023-02-07T10:30:05.095Z,101305.69
2023-02-07T10:32:36.045Z,101308.19
2023-02-07T10:35:16.792Z,101302.34
2023-02-07T10:37:45.750Z,101296.81
2023-02-07T10:40:44.357Z,101298.75
2023-02-07T10:43:25.119Z,101298.25
2023-02-07T10:46:00.874Z,101294.22
2023-02-07T10:48:33.693Z,101291.16
2023-02-07T10:51:02.925Z,101282.94
2023-02-07T10:53:54.991Z,101284.88
2023-02-07T10:56:28.064Z,101281.50
2023-02-07T10:58:58.176Z,101273.72
2023-02-07T11:01:28.034Z,101275.59
2023-02-07T11:03:55.344Z,101285.06
2023-02-07T11:07:00.181Z,101284.31
2023-02-07T11:09:27.776Z,101268.53
2023-02-07T11:11:55.332Z,101277.09
2023-02-07T11:14:28.783Z,101270.28
2023-02-07T11:16:57.962Z,101272.28
2023-02-07T11:19:28.363Z,101273.31
2023-02-07T11:22:17.834Z,101267.91
2023-02-07T11:24:46.304Z,101265.22
2023-02-07T11:27:23.790Z,101267.69
2023-02-07T11:29:57.029Z,101267.84
2023-02-07T11:32:26.575Z,101269.00
2023-02-07T11:34:58.855Z,101259.41
2023-02-07T11:37:33.781Z,101249.47
2023-02-07T11:40:44.594Z,101256.31
2023-02-07T11:43:15.840Z,101254.50
2023-02-07T11:45:52.150Z,101251.13
2023-02-07T11:48:25.577Z,101243.25
2023-02-07T11:50:58.313Z,101247.16
2023-02-07T11:53:32.786Z,101242.59
2023-02-07T11:55:59.712Z,101239.19
2023-02-07T11:58:37.117Z,101240.78
2023-02-07T12:01:06.578Z,101246.19
2023-02-07T12:03:52.896Z,101239.59
2023-02-07T12:06:23.332Z,101231.72
2023-02-07T12:08:52.709Z,101240.31
2023-02-07T12:11:28.691Z,101237.69
2023-02-07T12:14:11.286Z,101233.44
2023-02-07T12:17:00.278Z,101234.47
2023-02-07T12:19:44.021Z,101224.13
2023-02-07T12:22:18.863Z,101226.16
2023-02-07T12:24:55.018Z,101222.59
2023-02-07T12:27:29.821Z,101225.13
2023-02-07T12:30:14.054Z,101217.00
2023-02-07T12:32:59.086Z,101222.97
2023-02-07T12:35:35.645Z,101224.84
2023-02-07T12:38:12.681Z,101223.06
2023-02-07T12:41:16.008Z,101222.22
2023-02-07T12:43:51.591Z,101213.28
2023-02-07T12:46:37.342Z,101220.56
2023-02-07T12:49:28.724Z,101221.81
2023-02-07T12:52:01.332Z,101225.94
2023-02-07T12:54:39.862Z,101221.47
2023-02-07T12:58:00.381Z,101216.38
2023-02-07T13:01:08.556Z,101217.59
2023-02-07T13:03:56.123Z,101220.28
2023-02-07T13:06:37.140Z,101222.00
2023-02-07T13:09:42.321Z,101229.22
2023-02-07T13:12:10.041Z,101232.53
2023-02-07T13:15:21.031Z,101223.38
2023-02-07T13:18:06.784Z,101225.31
2023-02-07T13:20:59.900Z,101230.06
2023-02-07T13:23:30.956Z,101225.69
2023-02-07T13:26:12.300Z,101211.66
2023-02-07T13:28:45.561Z,101212.59
2023-02-07T13:31:18.583Z,101208.44
2023-02-07T13:33:50.993Z,101219.97
2023-02-07T13:36:51.989Z,101217.56
2023-02-07T13:39:41.202Z,101213.00
2023-02-07T13:42:19.680Z,101216.09
2023-02-07T13:45:11.111Z,101220.34
2023-02-07T13:48:05.773Z,101207.78
2023-02-07T13:50:58.478Z,101220.41
2023-02-07T13:53:51.936Z,101215.97
2023-02-07T13:56:50.047Z,101218.16
2023-02-07T13:59:41.322Z,101221.84
2023-02-07T14:02:20.533Z,101209.47
2023-02-07T14:04:49.760Z,101216.75
2023-02-07T14:07:30.040Z,101209.81
2023-02-07T14:09:59.068Z,101212.50
2023-02-07T14:12:33.348Z,101214.72
2023-02-07T14:15:28.433Z,101217.25
2023-02-07T14:17:59.940Z,101221.34
2023-02-07T14:20:35.955Z,101217.50
2023-02-07T14:23:18.785Z,101215.88
2023-02-07T14:25:47.438Z,101204.00
2023-02-07T14:28:20.169Z,101217.78
2023-02-07T14:30:58.556Z,101222.09
2023-02-07T14:33:37.174Z,101213.41
2023-02-07T14:36:12.773Z,101214.56
2023-02-07T14:38:43.750Z,101215.47
2023-02-07T14:41:19.885Z,101215.09
2023-02-07T14:44:10.169Z,101216.75
2023-02-07T14:46:59.180Z,101214.22
2023-02-07T14:49:44.476Z,101218.03
2023-02-07T14:52:27.388Z,101208.72
2023-02-07T14:55:03.129Z,101218.41
2023-02-07T14:57:56.063Z,101217.88
2023-02-07T15:00:28.953Z,101214.59
2023-02-07T15:03:03.423Z,101219.16
2023-02-07T15:05:39.125Z,101215.88
2023-02-07T15:08:14.586Z,101207.81
2023-02-07T15:10:53.884Z,101211.75
2023-02-07T15:13:29.719Z,101214.31
2023-02-07T15:16:16.734Z,101212.38
2023-02-07T15:18:55.466Z,101213.78
2023-02-07T15:21:46.312Z,101222.06
2023-02-07T15:24:28.230Z,101217.34
2023-02-07T15:26:58.738Z,101213.53
2023-02-07T15:29:30.898Z,101226.81
2023-02-07T15:31:58.260Z,101221.53
2023-02-07T15:34:31.951Z,101230.63
2023-02-07T15:37:15.308Z,101224.75
2023-02-07T15:39:42.783Z,101223.63
2023-02-07T15:42:16.733Z,101234.00
2023-02-07T15:45:01.616Z,101217.94
2023-02-07T15:47:28.354Z,101234.78
2023-02-07T15:50:04.212Z,101233.91
2023-02-07T15:52:44.831Z,101233.03
2023-02-07T15:55:30.052Z,101243.09
2023-02-07T15:57:56.992Z,101243.25
2023-02-07T16:00:28.638Z,101237.22
2023-02-07T16:03:01.352Z,101243.28
2023-02-07T16:05:33.017Z,101237.88
2023-02-07T16:08:01.921Z,101242.88
2023-02-07T16:10:35.398Z,101241.81
2023-02-07T16:13:18.262Z,101243.25
2023-02-07T16:15:59.772Z,101230.22
2023-02-07T16:18:48.554Z,101244.00
2023-02-07T16:21:23.750Z,101248.72
2023-02-07T16:23:54.124Z,101253.16
2023-02-07T16:26:25.814Z,101246.75
2023-02-07T16:28:52.693Z,101238.19
2023-02-07T16:31:19.733Z,101246.50
2023-02-07T16:33:46.687Z,101250.59
2023-02-07T16:36:16.844Z,101253.41
2023-02-07T16:38:44.289Z,101253.56
2023-02-07T16:41:28.485Z,101251.09
2023-02-07T16:43:55.793Z,101250.78
2023-02-07T16:46:22.590Z,101259.47
2023-02-07T16:48:49.477Z,101254.00
2023-02-07T16:51:17.055Z,101264.72
2023-02-07T16:53:44.289Z,101275.59
2023-02-07T16:56:25.907Z,101276.78
2023-02-07T16:58:52.782Z,101271.06
2023-02-07T17:01:21.813Z,101272.44
2023-02-07T17:03:49.113Z,101273.63
2023-02-07T17:06:17.945Z,101291.69
2023-02-07T17:08:45.937Z,101280.19
2023-02-07T17:11:21.004Z,101285.41
2023-02-07T17:13:47.821Z,101277.56
2023-02-07T17:16:15.263Z,101278.47
2023-02-07T17:19:01.682Z,101278.63
2023-02-07T17:21:28.467Z,101279.16
2023-02-07T17:23:55.270Z,101274.78
2023-02-07T17:26:30.158Z,101275.78
2023-02-07T17:28:56.998Z,101276.53
2023-02-07T17:31:24.394Z,101279.69
2023-02-07T17:33:52.543Z,101282.94
2023-02-07T17:36:20.386Z,101285.63
2023-02-07T17:38:47.330Z,101291.34
2023-02-07T17:41:15.812Z,101282.41
2023-02-07T17:43:42.991Z,101284.59
2023-02-07T17:46:23.641Z,101282.44
2023-02-07T17:48:51.540Z,101283.84
2023-02-07T17:51:23.912Z,101284.50
2023-02-07T17:53:51.471Z,101300.59
2023-02-07T17:56:28.539Z,101290.31
2023-02-07T17:58:58.464Z,101295.47
2023-02-07T18:01:25.383Z,101285.94
2023-02-07T18:03:54.255Z,101291.03
2023-02-07T18:06:24.076Z,101297.16
2023-02-07T18:08:50.966Z,101306.94
2023-02-07T18:11:18.195Z,101293.91
2023-02-07T18:13:48.836Z,101292.50
2023-02-07T18:16:18.354Z,101301.56
2023-02-07T18:18:45.576Z,101305.91
2023-02-07T18:21:13.616Z,101300.19
2023-02-07T18:23:43.109Z,101297.47
2023-02-07T18:26:15.799Z,101300.84
2023-02-07T18:28:43.961Z,101302.59
2023-02-07T18:31:12.955Z,101301.88
2023-02-07T18:33:39.934Z,101295.22
2023-02-07T18:36:07.876Z,101298.41
2023-02-07T18:38:53.189Z,101303.91
2023-02-07T18:41:23.601Z,101297.00
2023-02-07T18:43:50.886Z,101300.34
2023-02-07T18:46:19.561Z,101305.94
2023-02-07T18:48:49.817Z,101302.13
2023-02-07T18:51:36.297Z,101303.03
2023-02-07T18:54:03.282Z,101297.56
2023-02-07T18:56:30.974Z,101293.59
2023-02-07T18:58:59.103Z,101293.34
2023-02-07T19:01:28.735Z,101291.66
2023-02-07T19:03:58.602Z,101297.69
2023-02-07T19:06:31.988Z,101291.41
2023-02-07T19:08:59.179Z,101293.97
2023-02-07T19:11:44.612Z,101302.78
2023-02-07T19:14:18.990Z,101297.56
2023-02-07T19:16:46.895Z,101289.34
2023-02-07T19:19:16.709Z,101304.38
2023-02-07T19:21:44.027Z,101304.16
2023-02-07T19:24:18.607Z,101299.31
2023-02-07T19:26:50.371Z,101301.63
2023-02-07T19:29:20.499Z,101305.09
2023-02-07T19:31:47.395Z,101303.19
2023-02-07T19:34:15.629Z,101296.25
2023-02-07T19:36:42.620Z,101301.50
2023-02-07T19:39:10.744Z,101299.16
2023-02-07T19:41:37.601Z,101295.59
2023-02-07T19:44:04.654Z,101287.41
2023-02-07T19:46:32.303Z,101299.00
2023-02-07T19:48:59.703Z,101284.19
2023-02-07T19:51:29.642Z,101286.53
2023-02-07T19:54:15.372Z,101287.81
2023-02-07T19:57:00.859Z,101308.69
2023-02-07T19:59:27.820Z,101299.88
2023-02-07T20:01:55.083Z,101297.47
2023-02-07T20:04:21.887Z,101302.94
2023-02-07T20:06:48.776Z,101300.03
2023-02-07T20:09:15.600Z,101292.56
2023-02-07T20:11:44.273Z,101304.47
2023-02-07T20:14:11.471Z,101297.03
2023-02-07T20:16:39.335Z,101305.63
2023-02-07T20:19:07.595Z,101297.25
2023-02-07T20:21:35.989Z,101303.78
2023-02-07T20:24:03.325Z,101316.19
2023-02-07T20:26:33.502Z,101314.38
2023-02-07T20:29:02.673Z,101321.97
2023-02-07T20:31:32.138Z,101311.88
2023-02-07T20:33:59.943Z,101322.97
2023-02-07T20:36:27.090Z,101317.13
2023-02-07T20:38:56.375Z,101318.34
2023-02-07T20:41:31.464Z,101327.09
2023-02-07T20:43:59.636Z,101322.47
2023-02-07T20:46:28.490Z,101329.63
2023-02-07T20:49:00.866Z,101324.53
2023-02-07T20:51:29.424Z,101317.78
2023-02-07T20:53:59.720Z,101320.31
2023-02-07T20:56:28.041Z,101323.69
2023-02-07T20:58:55.110Z,101309.81
2023-02-07T21:01:27.223Z,101309.72
2023-02-07T21:03:56.058Z,101310.41
2023-02-07T21:06:24.161Z,101313.50
2023-02-07T21:08:58.758Z,101314.94
2023-02-07T21:11:28.375Z,101315.25
2023-02-07T21:13:55.241Z,101317.84
2023-02-07T21:16:22.462Z,101315.44
2023-02-07T21:18:49.287Z,101316.00
2023-02-07T21:21:16.638Z,101315.78
2023-02-07T21:23:43.702Z,101316.78
2023-02-07T21:26:13.110Z,101318.69
2023-02-07T21:28:40.550Z,101308.97
2023-02-07T21:31:22.038Z,101293.59
2023-02-07T21:33:50.054Z,101308.34
2023-02-07T21:36:25.350Z,101315.59
2023-02-07T21:39:12.325Z,101304.38
2023-02-07T21:41:42.370Z,101298.84
2023-02-07T21:44:11.248Z,101299.09
2023-02-07T21:46:39.727Z,101297.31
2023-02-07T21:49:16.267Z,101315.09
2023-02-07T21:51:44.969Z,101310.97
2023-02-07T21:54:12.086Z,101314.91
2023-02-07T21:56:41.166Z,101315.44
2023-02-07T21:59:12.672Z,101309.25
2023-02-07T22:01:39.899Z,101319.72
2023-02-07T22:04:10.575Z,101312.06
2023-02-07T22:06:43.403Z,101309.47
2023-02-07T22:09:15.240Z,101309.81
2023-02-07T22:11:43.022Z,101318.56
2023-02-07T22:14:12.192Z,101314.47
2023-02-07T22:16:39.090Z,101316.69
2023-02-07T22:19:07.232Z,101315.25
2023-02-07T22:21:35.896Z,101311.84
2023-02-07T22:24:04.376Z,101314.13
2023-02-07T22:26:32.079Z,101316.13
2023-02-07T22:29:08.442Z,101311.38
2023-02-07T22:31:36.758Z,101312.63
2023-02-07T22:34:07.874Z,101308.53
2023-02-07T22:36:37.652Z,101314.59
2023-02-07T22:39:06.636Z,101310.56
2023-02-07T22:41:33.965Z,101318.06
2023-02-07T22:44:01.602Z,101309.16
2023-02-07T22:46:29.084Z,101314.69
2023-02-07T22:48:56.369Z,101320.81
2023-02-07T22:51:23.306Z,101322.75
2023-02-07T22:54:09.656Z,101322.06
2023-02-07T22:56:38.292Z,101309.47
2023-02-07T22:59:05.947Z,101314.75
2023-02-07T23:01:35.783Z,101314.97
2023-02-07T23:04:04.454Z,101315.44
2023-02-07T23:06:32.743Z,101315.66
2023-02-07T23:09:00.176Z,101320.75
2023-02-07T23:11:27.583Z,101310.00
2023-02-07T23:13:55.346Z,101307.09
2023-02-07T23:16:25.884Z,101308.00
2023-02-07T23:18:56.558Z,101314.06
2023-02-07T23:21:24.571Z,101307.44
2023-02-07T23:23:52.020Z,101316.28
2023-02-07T23:26:21.704Z,101304.69
2023-02-07T23:28:49.255Z,101311.09
2023-02-07T23:31:18.216Z,101312.81
2023-02-07T23:33:45.139Z,101312.28
2023-02-07T23:36:12.688Z,101312.81
2023-02-07T23:38:40.745Z,101303.19
2023-02-07T23:41:08.057Z,101312.44
2023-02-07T23:43:38.998Z,101296.63
2023-02-07T23:46:07.149Z,101302.56
2023-02-07T23:48:38.091Z,101303.06
2023-02-07T23:51:06.745Z,101300.56
2023-02-07T23:53:34.147Z,101299.16
2023-02-07T23:56:01.620Z,101302.31
2023-02-07T23:58:28.538Z,101297.31
